createdAt,value
2022-11-25T00:01:12.765Z,100.00
2022-11-25T00:03:41.324Z,100.00
2022-11-25T00:06:10.613Z,100.00
2022-11-25T00:08:37.984Z,100.00
2022-11-25T00:11:07.019Z,100.00
2022-11-25T00:13:34.836Z,100.00
2022-11-25T00:16:07.800Z,100.00
2022-11-25T00:18:35.807Z,100.00
2022-11-25T00:21:10.938Z,100.00
2022-11-25T00:23:38.675Z,100.00
2022-11-25T00:26:09.880Z,100.00
2022-11-25T00:28:37.650Z,100.00
2022-11-25T00:31:09.734Z,100.00
2022-11-25T00:33:37.484Z,100.00
2022-11-25T00:36:06.613Z,100.00
2022-11-25T00:38:34.307Z,100.00
2022-11-25T00:41:19.883Z,100.00
2022-11-25T00:44:05.572Z,100.00
2022-11-25T00:46:33.562Z,100.00
2022-11-25T00:49:00.498Z,100.00
2022-11-25T00:51:27.413Z,100.00
2022-11-25T00:53:58.890Z,100.00
2022-11-25T00:56:26.709Z,100.00
2022-11-25T00:58:54.439Z,100.00
2022-11-25T01:01:22.555Z,100.00
2022-11-25T01:03:51.386Z,100.00
2022-11-25T01:06:19.318Z,100.00
2022-11-25T01:08:46.556Z,100.00
2022-11-25T01:11:17.165Z,100.00
2022-11-25T01:13:44.754Z,100.00
2022-11-25T01:16:15.846Z,100.00
2022-11-25T01:18:43.805Z,100.00
2022-11-25T01:21:14.182Z,100.00
2022-11-25T01:23:42.543Z,100.00
2022-11-25T01:26:12.942Z,100.00
2022-11-25T01:28:40.682Z,100.00
2022-11-25T01:31:09.132Z,100.00
2022-11-25T01:33:37.263Z,100.00
2022-11-25T01:36:10.118Z,100.00
2022-11-25T01:38:37.483Z,100.00
2022-11-25T01:41:06.647Z,100.00
2022-11-25T01:43:34.198Z,100.00
2022-11-25T01:46:24.804Z,100.00
2022-11-25T01:48:59.992Z,100.00
2022-11-25T01:51:34.502Z,100.00
2022-11-25T01:54:04.055Z,100.00
2022-11-25T01:56:38.122Z,100.00
2022-11-25T01:59:05.715Z,100.00
2022-11-25T02:01:35.980Z,100.00
2022-11-25T02:04:04.607Z,100.00
2022-11-25T02:06:39.180Z,100.00
2022-11-25T02:09:08.766Z,100.00
2022-11-25T02:11:40.542Z,100.00
2022-11-25T02:14:09.725Z,100.00
2022-11-25T02:16:36.765Z,100.00
2022-11-25T02:19:04.843Z,100.00
2022-11-25T02:21:43.106Z,100.00
2022-11-25T02:24:32.695Z,100.00
2022-11-25T02:27:00.732Z,100.00
2022-11-25T02:29:29.066Z,100.00
2022-11-25T02:31:56.272Z,100.00
2022-11-25T02:34:25.023Z,100.00
2022-11-25T02:36:53.488Z,100.00
2022-11-25T02:39:21.642Z,100.00
2022-11-25T02:41:54.293Z,100.00
2022-11-25T02:44:21.243Z,100.00
2022-11-25T02:46:48.239Z,100.00
2022-11-25T02:49:15.237Z,100.00
2022-11-25T02:51:45.114Z,100.00
2022-11-25T02:54:15.727Z,100.00
2022-11-25T02:56:43.163Z,100.00
2022-11-25T02:59:11.164Z,100.00
2022-11-25T03:01:39.514Z,100.00
2022-11-25T03:04:08.924Z,100.00
2022-11-25T03:06:36.398Z,100.00
2022-11-25T03:09:03.722Z,100.00
2022-11-25T03:11:49.883Z,100.00
2022-11-25T03:14:17.642Z,100.00
2022-11-25T03:16:44.701Z,100.00
2022-11-25T03:19:11.950Z,100.00
2022-11-25T03:21:39.010Z,100.00
2022-11-25T03:24:06.925Z,100.00
2022-11-25T03:26:34.044Z,100.00
2022-11-25T03:29:01.083Z,100.00
2022-11-25T03:31:28.135Z,100.00
2022-11-25T03:33:55.975Z,100.00
2022-11-25T03:36:22.929Z,100.00
2022-11-25T03:38:50.599Z,100.00
2022-11-25T03:41:17.982Z,100.00
2022-11-25T03:43:46.197Z,100.00
2022-11-25T03:46:13.279Z,100.00
2022-11-25T03:48:40.556Z,100.00
2022-11-25T03:51:08.397Z,100.00
2022-11-25T03:53:35.868Z,100.00
2022-11-25T03:56:05.625Z,100.00
2022-11-25T03:58:32.677Z,100.00
2022-11-25T04:01:04.051Z,100.00
2022-11-25T04:03:31.259Z,100.00
2022-11-25T04:05:58.923Z,100.00
2022-11-25T04:08:26.089Z,100.00
2022-11-25T04:10:53.482Z,100.00
2022-11-25T04:13:24.387Z,100.00
2022-11-25T04:15:52.906Z,100.00
2022-11-25T04:18:21.323Z,100.00
2022-11-25T04:20:52.283Z,100.00
2022-11-25T04:23:19.325Z,100.00
2022-11-25T04:25:55.116Z,100.00
2022-11-25T04:28:27.696Z,100.00
2022-11-25T04:30:55.292Z,100.00
2022-11-25T04:33:22.646Z,100.00
2022-11-25T04:35:49.668Z,100.00
2022-11-25T04:38:17.066Z,100.00
2022-11-25T04:40:44.203Z,100.00
2022-11-25T04:43:14.138Z,100.00
2022-11-25T04:46:13.118Z,100.00
2022-11-25T04:48:36.605Z,100.00
2022-11-25T04:51:04.357Z,100.00
2022-11-25T04:53:31.803Z,100.00
2022-11-25T04:55:58.763Z,100.00
2022-11-25T04:58:44.876Z,100.00
2022-11-25T05:01:12.719Z,100.00
2022-11-25T05:03:49.665Z,100.00
2022-11-25T05:06:19.883Z,100.00
2022-11-25T05:08:51.202Z,100.00
2022-11-25T05:11:18.907Z,100.00
2022-11-25T05:13:45.962Z,100.00
2022-11-25T05:16:12.956Z,100.00
2022-11-25T05:18:40.336Z,100.00
2022-11-25T05:21:08.097Z,100.00
2022-11-25T05:23:39.403Z,100.00
2022-11-25T05:26:06.582Z,100.00
2022-11-25T05:28:38.603Z,100.00
2022-11-25T05:31:06.275Z,100.00
2022-11-25T05:33:33.323Z,100.00
2022-11-25T05:36:02.284Z,100.00
2022-11-25T05:38:36.213Z,100.00
2022-11-25T05:41:06.037Z,100.00
2022-11-25T05:43:33.990Z,100.00
2022-11-25T05:46:05.280Z,100.00
2022-11-25T05:48:34.124Z,100.00
2022-11-25T05:51:02.489Z,100.00
2022-11-25T05:53:31.566Z,100.00
2022-11-25T05:56:04.984Z,100.00
2022-11-25T05:59:05.247Z,100.00
2022-11-25T06:01:54.456Z,100.00
2022-11-25T06:04:21.624Z,100.00
2022-11-25T06:06:48.666Z,100.00
2022-11-25T06:09:15.781Z,100.00
2022-11-25T06:11:42.762Z,100.00
2022-11-25T06:14:10.165Z,100.00
2022-11-25T06:16:37.962Z,100.00
2022-11-25T06:19:20.252Z,100.00
2022-11-25T06:21:48.198Z,100.00
2022-11-25T06:24:15.958Z,100.00
2022-11-25T06:26:45.686Z,100.00
2022-11-25T06:29:12.783Z,100.00
2022-11-25T06:31:43.205Z,100.00
2022-11-25T06:34:26.806Z,100.00
2022-11-25T06:36:54.843Z,100.00
2022-11-25T06:39:21.829Z,100.00
2022-11-25T06:41:48.906Z,100.00
2022-11-25T06:44:15.963Z,100.00
2022-11-25T06:46:42.991Z,100.00
2022-11-25T06:49:10.122Z,100.00
2022-11-25T06:51:37.164Z,100.00
2022-11-25T06:54:04.365Z,100.00
2022-11-25T06:56:31.322Z,100.00
2022-11-25T06:58:58.256Z,100.00
2022-11-25T07:01:28.262Z,100.00
2022-11-25T07:04:01.577Z,100.00
2022-11-25T07:06:28.683Z,100.00
2022-11-25T07:08:56.474Z,100.00
2022-11-25T07:11:32.693Z,100.00
2022-11-25T07:14:02.923Z,100.00
2022-11-25T07:16:30.474Z,100.00
2022-11-25T07:19:02.176Z,100.00
2022-11-25T07:21:32.443Z,100.00
2022-11-25T07:24:01.568Z,100.00
2022-11-25T07:26:31.163Z,100.00
2022-11-25T07:29:00.686Z,100.00
2022-11-25T07:31:36.843Z,100.00
2022-11-25T07:34:11.973Z,100.00
2022-11-25T07:36:40.307Z,100.00
2022-11-25T07:39:11.803Z,100.00
2022-11-25T07:41:39.619Z,100.00
2022-11-25T07:44:09.221Z,100.00
2022-11-25T07:46:47.702Z,100.00
2022-11-25T07:49:17.619Z,100.00
2022-11-25T07:51:54.044Z,100.00
2022-11-25T07:54:23.010Z,100.00
2022-11-25T07:56:51.079Z,100.00
2022-11-25T07:59:20.843Z,100.00
2022-11-25T08:01:53.253Z,100.00
2022-11-25T08:04:21.517Z,100.00
2022-11-25T08:06:51.030Z,100.00
2022-11-25T08:09:23.009Z,100.00
2022-11-25T08:11:51.099Z,100.00
2022-11-25T08:14:18.299Z,100.00
2022-11-25T08:16:45.988Z,100.00
2022-11-25T08:19:16.044Z,100.00
2022-11-25T08:21:43.572Z,100.00
2022-11-25T08:24:19.885Z,100.00
2022-11-25T08:26:48.151Z,100.00
2022-11-25T08:29:17.614Z,100.00
2022-11-25T08:31:45.285Z,100.00
2022-11-25T08:34:21.884Z,100.00
2022-11-25T08:36:52.044Z,100.00
2022-11-25T08:39:51.270Z,100.00
2022-11-25T08:42:09.457Z,100.00
2022-11-25T08:44:36.693Z,100.00
2022-11-25T08:47:04.003Z,100.00
2022-11-25T08:49:34.767Z,100.00
2022-11-25T08:52:06.007Z,100.00
2022-11-25T08:54:33.007Z,100.00
2022-11-25T08:57:00.932Z,100.00
2022-11-25T08:59:27.878Z,100.00
2022-11-25T09:01:55.723Z,100.00
2022-11-25T09:04:22.923Z,100.00
2022-11-25T09:06:50.022Z,100.00
2022-11-25T09:09:17.263Z,100.00
2022-11-25T09:11:44.321Z,100.00
2022-11-25T09:14:12.409Z,100.00
2022-11-25T09:16:40.020Z,100.00
2022-11-25T09:19:07.003Z,100.00
2022-11-25T09:21:34.070Z,100.00
2022-11-25T09:24:01.083Z,100.00
2022-11-25T09:26:30.752Z,100.00
2022-11-25T09:28:57.740Z,100.00
2022-11-25T09:31:25.274Z,99.96
2022-11-25T09:33:52.624Z,99.93
2022-11-25T09:36:21.238Z,99.83
2022-11-25T09:38:48.284Z,99.67
2022-11-25T09:41:45.953Z,99.80
2022-11-25T09:44:40.609Z,99.43
2022-11-25T09:47:35.222Z,99.49
2022-11-25T09:50:15.253Z,99.10
2022-11-25T09:52:50.764Z,99.15
2022-11-25T09:55:22.183Z,99.14
2022-11-25T09:58:24.133Z,98.93
2022-11-25T10:00:53.323Z,99.28
2022-11-25T10:03:38.544Z,99.00
2022-11-25T10:06:24.176Z,99.00
2022-11-25T10:08:55.591Z,98.91
2022-11-25T10:11:34.844Z,98.77
2022-11-25T10:14:06.293Z,98.94
2022-11-25T10:16:51.788Z,98.62
2022-11-25T10:19:39.724Z,98.72
2022-11-25T10:22:26.454Z,98.93
2022-11-25T10:24:58.441Z,98.66
2022-11-25T10:27:36.508Z,98.62
2022-11-25T10:30:47.117Z,98.34
2022-11-25T10:33:21.198Z,98.46
2022-11-25T10:35:52.364Z,98.00
2022-11-25T10:38:37.587Z,98.13
2022-11-25T10:41:05.764Z,97.91
2022-11-25T10:43:33.802Z,97.88
2022-11-25T10:46:15.039Z,97.87
2022-11-25T10:49:06.609Z,97.74
2022-11-25T10:51:42.408Z,97.88
2022-11-25T10:54:16.525Z,97.49
2022-11-25T10:56:50.621Z,97.52
2022-11-25T10:59:36.203Z,97.39
2022-11-25T11:02:24.642Z,96.93
2022-11-25T11:05:10.053Z,96.77
2022-11-25T11:07:41.209Z,96.58
2022-11-25T11:10:23.880Z,96.56
2022-11-25T11:13:21.581Z,96.80
2022-11-25T11:15:48.695Z,96.82
2022-11-25T11:18:27.244Z,96.57
2022-11-25T11:20:59.638Z,96.53
2022-11-25T11:23:28.684Z,96.05
2022-11-25T11:26:15.736Z,96.00
2022-11-25T11:28:42.841Z,95.76
2022-11-25T11:31:19.796Z,95.12
2022-11-25T11:34:02.898Z,95.25
2022-11-25T11:36:49.459Z,95.05
2022-11-25T11:39:49.758Z,94.93
2022-11-25T11:42:43.722Z,94.58
2022-11-25T11:45:24.966Z,94.57
2022-11-25T11:48:20.845Z,94.22
2022-11-25T11:50:50.962Z,93.90
2022-11-25T11:53:28.370Z,93.54
2022-11-25T11:59:00.566Z,93.90
2022-11-25T12:01:55.387Z,93.67
2022-11-25T12:04:39.437Z,93.55
2022-11-25T12:07:20.914Z,93.52
2022-11-25T12:10:02.656Z,93.28
2022-11-25T12:12:59.489Z,93.09
2022-11-25T12:16:00.991Z,92.71
2022-11-25T12:18:49.882Z,92.62
2022-11-25T12:21:28.925Z,92.50
2022-11-25T12:24:04.522Z,92.60
2022-11-25T12:26:43.479Z,92.57
2022-11-25T12:29:20.464Z,92.66
2022-11-25T12:31:56.938Z,92.32
2022-11-25T12:34:36.941Z,92.26
2022-11-25T12:37:52.383Z,92.32
2022-11-25T12:40:42.843Z,91.99
2022-11-25T12:43:10.188Z,91.76
2022-11-25T12:45:37.596Z,91.58
2022-11-25T12:48:05.564Z,91.28
2022-11-25T12:51:02.213Z,91.43
2022-11-25T12:53:59.653Z,91.17
2022-11-25T12:56:55.694Z,91.11
2022-11-25T12:59:26.639Z,91.03
2022-11-25T13:02:41.696Z,91.24
2022-11-25T13:05:40.596Z,91.00
2022-11-25T13:08:14.202Z,90.74
2022-11-25T13:10:54.283Z,90.50
2022-11-25T13:14:14.146Z,90.16
2022-11-25T13:16:46.039Z,90.21
2022-11-25T13:19:16.524Z,90.05
2022-11-25T13:22:01.224Z,90.13
2022-11-25T13:24:43.069Z,89.70
2022-11-25T13:27:33.289Z,89.67
2022-11-25T13:30:01.406Z,89.49
2022-11-25T13:32:37.626Z,89.60
2022-11-25T13:35:22.875Z,89.69
2022-11-25T13:37:50.987Z,89.51
2022-11-25T13:40:23.650Z,89.64
2022-11-25T13:42:52.472Z,89.61
2022-11-25T13:45:52.348Z,89.28
2022-11-25T13:48:31.473Z,89.25
2022-11-25T13:51:23.024Z,88.91
2022-11-25T13:53:54.046Z,88.90
2022-11-25T13:56:23.936Z,89.08
2022-11-25T13:59:11.809Z,88.68
2022-11-25T14:01:41.136Z,88.69
2022-11-25T14:04:11.005Z,88.91
2022-11-25T14:07:19.998Z,89.02
2022-11-25T14:10:02.993Z,88.81
2022-11-25T14:12:39.084Z,88.61
2022-11-25T14:15:19.833Z,88.83
2022-11-25T14:18:11.590Z,88.71
2022-11-25T14:21:02.846Z,89.08
2022-11-25T14:23:53.717Z,89.26
2022-11-25T14:26:49.722Z,89.28
2022-11-25T14:29:23.839Z,89.49
2022-11-25T14:31:58.865Z,89.41
2022-11-25T14:34:43.019Z,89.58
2022-11-25T14:37:33.029Z,89.36
2022-11-25T14:40:13.495Z,89.50
2022-11-25T14:42:45.844Z,89.71
2022-11-25T14:45:23.548Z,89.74
2022-11-25T14:47:51.529Z,89.78
2022-11-25T14:50:35.299Z,90.11
2022-11-25T14:53:08.073Z,90.35
2022-11-25T14:55:36.601Z,90.44
2022-11-25T14:58:03.852Z,90.38
2022-11-25T15:00:30.834Z,90.62
2022-11-25T15:03:06.842Z,90.60
2022-11-25T15:05:39.813Z,90.58
2022-11-25T15:08:22.252Z,90.80
2022-11-25T15:10:52.234Z,90.84
2022-11-25T15:13:21.867Z,90.84
2022-11-25T15:15:50.643Z,90.91
2022-11-25T15:18:22.003Z,90.85
2022-11-25T15:20:59.937Z,91.52
2022-11-25T15:23:37.136Z,91.82
2022-11-25T15:26:05.182Z,91.76
2022-11-25T15:28:37.413Z,91.83
2022-11-25T15:31:32.261Z,91.86
2022-11-25T15:34:03.780Z,92.15
2022-11-25T15:36:31.137Z,92.19
2022-11-25T15:39:14.607Z,92.07
2022-11-25T15:41:44.123Z,92.49
2022-11-25T15:44:29.593Z,92.35
2022-11-25T15:47:01.148Z,92.65
2022-11-25T15:49:28.734Z,92.66
2022-11-25T15:52:19.789Z,92.72
2022-11-25T15:54:49.591Z,92.85
2022-11-25T15:57:30.775Z,92.95
2022-11-25T15:59:57.723Z,93.10
2022-11-25T16:02:39.234Z,93.17
2022-11-25T16:05:14.875Z,93.23
2022-11-25T16:07:51.340Z,93.21
2022-11-25T16:10:22.078Z,93.26
2022-11-25T16:13:22.004Z,93.56
2022-11-25T16:15:54.079Z,93.46
2022-11-25T16:18:40.103Z,93.50
2022-11-25T16:21:23.329Z,93.32
2022-11-25T16:24:08.112Z,93.61
2022-11-25T16:26:40.375Z,93.48
2022-11-25T16:29:42.171Z,93.91
2022-11-25T16:32:26.781Z,93.83
2022-11-25T16:34:56.958Z,93.79
2022-11-25T16:37:24.276Z,94.06
2022-11-25T16:39:51.255Z,94.03
2022-11-25T16:42:21.331Z,94.09
2022-11-25T16:44:51.483Z,94.08
2022-11-25T16:47:21.204Z,94.11
2022-11-25T16:49:48.848Z,94.32
2022-11-25T16:52:16.124Z,94.35
2022-11-25T16:54:43.368Z,94.45
2022-11-25T16:57:18.819Z,94.68
2022-11-25T16:59:50.265Z,94.48
2022-11-25T17:02:23.088Z,94.80
2022-11-25T17:04:50.138Z,94.74
2022-11-25T17:07:32.894Z,94.94
2022-11-25T17:10:00.666Z,94.95
2022-11-25T17:12:31.724Z,94.84
2022-11-25T17:15:00.479Z,94.99
2022-11-25T17:17:28.788Z,94.98
2022-11-25T17:19:55.945Z,95.22
2022-11-25T17:22:26.057Z,95.24
2022-11-25T17:24:54.679Z,95.29
2022-11-25T17:27:23.960Z,95.33
2022-11-25T17:29:52.675Z,95.17
2022-11-25T17:32:22.104Z,94.92
2022-11-25T17:34:49.414Z,95.23
2022-11-25T17:37:19.084Z,95.17
2022-11-25T17:39:46.404Z,95.20
2022-11-25T17:42:16.568Z,95.25
2022-11-25T17:44:49.824Z,95.66
2022-11-25T17:47:20.196Z,95.70
2022-11-25T17:49:47.122Z,95.34
2022-11-25T17:52:14.562Z,95.25
2022-11-25T17:54:42.220Z,95.71
2022-11-25T17:57:15.758Z,95.52
2022-11-25T17:59:43.181Z,95.38
2022-11-25T18:02:22.227Z,95.20
2022-11-25T18:04:50.743Z,95.34
2022-11-25T18:07:18.958Z,95.49
2022-11-25T18:09:46.271Z,95.49
2022-11-25T18:12:28.718Z,96.03
2022-11-25T18:14:56.526Z,96.05
2022-11-25T18:17:23.423Z,96.00
2022-11-25T18:19:54.987Z,95.81
2022-11-25T18:22:24.311Z,95.73
2022-11-25T18:24:52.594Z,95.80
2022-11-25T18:27:27.464Z,95.90
2022-11-25T18:29:57.407Z,95.84
2022-11-25T18:32:25.648Z,95.76
2022-11-25T18:34:52.816Z,95.92
2022-11-25T18:37:22.524Z,95.75
2022-11-25T18:39:49.913Z,96.09
2022-11-25T18:42:26.713Z,96.00
2022-11-25T18:44:55.569Z,95.99
2022-11-25T18:47:22.969Z,96.16
2022-11-25T18:49:55.392Z,95.94
2022-11-25T18:52:24.259Z,96.17
2022-11-25T18:54:52.102Z,96.00
2022-11-25T18:57:19.699Z,96.04
2022-11-25T19:00:10.291Z,96.10
2022-11-25T19:02:36.220Z,95.99
2022-11-25T19:05:15.094Z,96.01
2022-11-25T19:07:42.580Z,96.12
2022-11-25T19:10:13.763Z,96.01
2022-11-25T19:12:44.764Z,96.08
2022-11-25T19:15:17.507Z,96.28
2022-11-25T19:17:48.456Z,96.10
2022-11-25T19:20:18.253Z,96.28
2022-11-25T19:22:45.969Z,96.35
2022-11-25T19:25:13.648Z,96.33
2022-11-25T19:27:56.407Z,96.47
2022-11-25T19:30:26.309Z,96.51
2022-11-25T19:32:57.232Z,96.26
2022-11-25T19:35:32.651Z,96.47
2022-11-25T19:38:00.618Z,96.33
2022-11-25T19:40:33.462Z,96.25
2022-11-25T19:43:04.210Z,96.60
2022-11-25T19:45:31.963Z,96.43
2022-11-25T19:48:04.807Z,96.50
2022-11-25T19:50:34.102Z,96.41
2022-11-25T19:53:01.569Z,96.38
2022-11-25T19:55:30.871Z,96.58
2022-11-25T19:57:58.459Z,96.52
2022-11-25T20:00:26.308Z,96.55
2022-11-25T20:02:57.176Z,96.49
2022-11-25T20:05:35.060Z,96.42
2022-11-25T20:08:02.293Z,96.27
2022-11-25T20:10:32.081Z,96.26
2022-11-25T20:12:59.866Z,96.19
2022-11-25T20:15:29.688Z,96.27
2022-11-25T20:18:01.730Z,96.22
2022-11-25T20:20:33.458Z,96.44
2022-11-25T20:23:39.971Z,96.20
2022-11-25T20:26:07.213Z,96.26
2022-11-25T20:28:34.193Z,95.99
2022-11-25T20:31:01.163Z,96.01
2022-11-25T20:33:29.919Z,95.85
2022-11-25T20:36:05.569Z,95.88
2022-11-25T20:38:37.839Z,95.85
2022-11-25T20:41:06.169Z,95.77
2022-11-25T20:43:39.656Z,96.02
2022-11-25T20:46:23.169Z,95.70
2022-11-25T20:49:01.955Z,95.63
2022-11-25T20:51:29.696Z,95.58
2022-11-25T20:53:58.929Z,95.77
2022-11-25T20:56:27.726Z,95.76
2022-11-25T20:58:55.129Z,95.98
2022-11-25T21:01:22.636Z,95.66
2022-11-25T21:03:50.843Z,95.91
2022-11-25T21:06:21.687Z,95.92
2022-11-25T21:08:51.678Z,95.69
2022-11-25T21:11:21.168Z,95.52
2022-11-25T21:13:49.374Z,95.67
2022-11-25T21:16:16.698Z,95.50
2022-11-25T21:18:44.233Z,95.48
2022-11-25T21:21:30.369Z,95.36
2022-11-25T21:24:02.391Z,95.51
2022-11-25T21:26:29.815Z,95.59
2022-11-25T21:28:58.218Z,95.19
2022-11-25T21:31:26.611Z,95.27
2022-11-25T21:33:58.045Z,96.04
2022-11-25T21:36:29.863Z,97.43
2022-11-25T21:39:04.519Z,98.37
2022-11-25T21:41:31.764Z,98.65
2022-11-25T21:43:58.743Z,98.84
2022-11-25T21:46:29.134Z,98.79
2022-11-25T21:48:56.993Z,98.79
2022-11-25T21:51:26.839Z,99.14
2022-11-25T21:53:54.290Z,99.24
2022-11-25T21:56:28.358Z,99.17
2022-11-25T21:58:56.304Z,99.38
2022-11-25T22:01:24.257Z,99.15
2022-11-25T22:03:52.133Z,98.96
2022-11-25T22:06:31.079Z,98.97
2022-11-25T22:08:58.197Z,99.35
2022-11-25T22:11:31.141Z,99.50
2022-11-25T22:13:59.563Z,99.46
2022-11-25T22:16:31.020Z,99.47
2022-11-25T22:18:58.306Z,99.57
2022-11-25T22:21:25.703Z,99.37
2022-11-25T22:23:53.382Z,99.60
2022-11-25T22:26:23.287Z,99.57
2022-11-25T22:28:51.658Z,99.63
2022-11-25T22:31:20.741Z,99.76
2022-11-25T22:33:49.153Z,99.67
2022-11-25T22:36:35.508Z,99.86
2022-11-25T22:39:16.112Z,99.70
2022-11-25T22:41:55.428Z,99.96
2022-11-25T22:44:37.369Z,100.00
2022-11-25T22:47:05.608Z,99.70
2022-11-25T22:49:47.641Z,99.84
2022-11-25T22:52:24.171Z,99.84
2022-11-25T22:54:51.204Z,99.99
2022-11-25T22:57:18.415Z,99.94
2022-11-25T22:59:45.579Z,100.00
2022-11-25T23:02:27.830Z,100.00
2022-11-25T23:04:56.377Z,99.99
2022-11-25T23:07:24.645Z,99.90
2022-11-25T23:09:52.173Z,100.00
2022-11-25T23:12:19.748Z,100.00
2022-11-25T23:14:46.684Z,100.00
2022-11-25T23:17:21.760Z,100.00
2022-11-25T23:19:50.020Z,100.00
2022-11-25T23:22:17.083Z,100.00
2022-11-25T23:24:46.124Z,99.27
2022-11-25T23:27:15.333Z,97.87
2022-11-25T23:29:43.322Z,97.42
2022-11-25T23:32:21.163Z,97.08
2022-11-25T23:34:50.685Z,96.42
2022-11-25T23:37:18.151Z,96.61
2022-11-25T23:39:51.778Z,96.35
2022-11-25T23:42:20.138Z,96.36
2022-11-25T23:44:47.228Z,95.99
2022-11-25T23:47:18.888Z,95.99
2022-11-25T23:49:49.975Z,96.07
2022-11-25T23:52:23.104Z,95.82
2022-11-25T23:54:51.684Z,96.00
2022-11-25T23:57:21.674Z,95.96
2022-11-25T23:59:50.236Z,96.03
